Georgetown, SC

1:43 AM EDT on September 16, 2014 (GMT -0400)
Myrtle Beach International | Change Station
CLOSE
Current Station
Airport
Location: Myrtle Beach,
Elevation: 26 ft
Nearby Weather Stations

Elev 26 ft 33.68 °N, 78.93 °W | Updated 8 minutes ago

Mostly Cloudy
Mostly Cloudy
73 °F
Feels Like 73 °F
N
4
Wind Variable Wind from North

Today
High -- | Low -- °F
--% Chance of Precip.
Yesterday
High -- | Low -- °F
Precip. -- in
7:01 AM 7:22 PM
Waning Gibbous, 49% visible
Pressure 30.09 in
Visibility 10.0 miles
Clouds Overcast 1500 ft
Dew Point 68 °F
Humidity 83%
Rainfall 0.00 in
Snow Depth Not available.
UV 0 out of 12
Pollen 7.70 out of 12
Air Quality Not available.
Flu Activity Not available.
METAR KMYR 160535Z 35003KT 10SM OVC015 23/20 A3009 RMK AO1

More Conditions Fewer Conditions

Pressure 30.09 in
Visibility 10.0 miles
Clouds Overcast 1500 ft
Dew Point 68 °F
Humidity 83%
Rainfall 0.00 in
Snow Depth Not available.
UV 0 out of 12
Pollen 7.70 out of 12
Air Quality Not available.
Flu Activity Not available.
METAR KMYR 160535Z 35003KT 10SM OVC015 23/20 A3009 RMK AO1

More Conditions Fewer Conditions

10-Day Weather Forecast

Almanac

Astronomy

Sep. 16, 2014 Rise Set
Actual Time 7:01 AM EDT 7:22 PM EDT
Civil Twilight 6:36 AM EDT 7:47 PM EDT
Nautical Twilight 6:07 AM EDT 8:16 PM EDT
Astronomical Twilight 5:37 AM EDT 8:45 PM EDT
Moon 12:22 AM EDT 2:32 PM EDT
Length of Visible Light 13h 10m
Length of Day
12h 20m
Tomorrow will be 2m 3s shorter.
Waning Gibbous, 49% of the Moon is Illuminated
Today
Waning Gibbous
Sep 24
New
Oct 1
First Quarter
Oct 8
Full
Oct 15
Last Quarter

Today's Extremes

State Highs State Lows

Community

WunderPhotos

Upload Photos

1,753,702 photos uploaded!

Nearby

Snow Depth

Station Depth Elevation
No new snow has been reported.

Earthquake Activity

City Distance Mag. Time & Date
No recent earthquake activity has been reported nearby.
Minimum magnitude displayed is 2.5.

Coastal Water Temperatures

Place Temperature
Springmaid Pier, SC 82.0 °F

Nearby Weather Stations